createdAt,value
2019-06-08T00:00:09.844Z,18.96
2019-06-08T00:05:14.744Z,18.88
2019-06-08T00:10:21.152Z,18.92
2019-06-08T00:15:22.471Z,19.00
2019-06-08T00:20:25.272Z,18.97
2019-06-08T00:25:27.999Z,18.97
2019-06-08T00:30:32.836Z,18.94
2019-06-08T00:35:35.712Z,18.93
2019-06-08T00:40:38.462Z,18.81
2019-06-08T00:45:41.282Z,18.73
2019-06-08T00:50:45.725Z,18.66
2019-06-08T00:55:50.082Z,18.73
2019-06-08T01:00:54.739Z,18.74
2019-06-08T01:05:57.989Z,18.67
2019-06-08T01:11:00.687Z,18.65
2019-06-08T01:16:03.516Z,18.57
2019-06-08T01:21:06.382Z,18.48
2019-06-08T01:26:09.347Z,18.36
2019-06-08T01:31:12.081Z,18.24
2019-06-08T01:36:14.793Z,18.12
2019-06-08T01:41:17.502Z,17.97
2019-06-08T01:46:20.200Z,17.93
2019-06-08T01:51:22.925Z,17.90
2019-06-08T01:56:25.650Z,17.85
2019-06-08T02:01:29.837Z,17.84
2019-06-08T02:06:32.672Z,17.75
2019-06-08T02:11:35.423Z,17.65
2019-06-08T02:16:38.153Z,17.50
2019-06-08T02:21:40.852Z,17.51
2019-06-08T02:26:43.567Z,17.50
2019-06-08T02:31:48.155Z,17.43
2019-06-08T02:36:50.910Z,17.37
2019-06-08T02:41:53.621Z,17.29
2019-06-08T02:46:56.382Z,17.27
2019-06-08T02:52:00.311Z,17.22
2019-06-08T02:57:04.114Z,17.08
2019-06-08T03:02:09.318Z,17.06
2019-06-08T03:07:15.596Z,16.88
2019-06-08T03:12:21.925Z,16.90
2019-06-08T03:17:24.627Z,16.76
2019-06-08T03:22:27.334Z,16.70
2019-06-08T03:27:30.064Z,16.64
2019-06-08T03:32:34.844Z,16.68
2019-06-08T03:37:37.850Z,16.69
2019-06-08T03:42:40.747Z,16.69
2019-06-08T03:47:45.160Z,16.62
2019-06-08T03:52:48.078Z,16.64
2019-06-08T03:57:50.813Z,16.76
2019-06-08T04:02:53.539Z,16.99
2019-06-08T04:07:56.254Z,17.21
2019-06-08T04:12:58.984Z,17.23
2019-06-08T04:18:01.781Z,17.33
2019-06-08T04:23:04.493Z,17.37
2019-06-08T04:28:07.234Z,17.30
2019-06-08T04:33:10.019Z,17.30
2019-06-08T04:38:12.730Z,17.28
2019-06-08T04:43:15.447Z,17.37
2019-06-08T04:48:18.182Z,17.62
2019-06-08T04:53:20.915Z,17.65
2019-06-08T04:58:23.655Z,17.69
2019-06-08T05:03:26.396Z,17.62
2019-06-08T05:08:29.107Z,17.63
2019-06-08T05:13:31.866Z,17.65
2019-06-08T05:18:34.567Z,17.98
2019-06-08T05:23:37.302Z,18.24
2019-06-08T05:28:41.062Z,18.36
2019-06-08T05:33:45.443Z,18.50
2019-06-08T05:38:48.298Z,18.56
2019-06-08T05:43:51.065Z,18.06
2019-06-08T05:48:54.466Z,18.86
2019-06-08T05:53:58.114Z,18.96
2019-06-08T05:59:01.108Z,19.09
2019-06-08T06:04:04.109Z,19.20
2019-06-08T06:09:07.631Z,19.35
2019-06-08T06:14:24.603Z,19.32
2019-06-08T06:19:27.409Z,19.50
2019-06-08T06:24:30.161Z,19.83
2019-06-08T06:29:32.937Z,20.04
2019-06-08T06:34:35.657Z,19.94
2019-06-08T06:39:38.390Z,20.53
2019-06-08T06:44:42.064Z,20.62
2019-06-08T06:49:46.287Z,20.70
2019-06-08T06:54:49.164Z,20.46
2019-06-08T06:59:52.032Z,20.41
2019-06-08T07:04:54.879Z,20.30
2019-06-08T07:09:57.618Z,20.52
2019-06-08T07:15:00.366Z,20.72
2019-06-08T07:20:03.458Z,20.79
2019-06-08T07:25:06.318Z,20.83
2019-06-08T07:30:09.317Z,20.76
2019-06-08T07:35:12.134Z,21.02
2019-06-08T07:40:16.004Z,20.85
2019-06-08T07:45:19.063Z,20.72
2019-06-08T07:50:21.831Z,20.95
2019-06-08T07:55:24.656Z,21.23
2019-06-08T08:00:27.472Z,20.95
2019-06-08T08:05:30.185Z,20.95
2019-06-08T08:10:32.895Z,21.07
2019-06-08T08:15:35.612Z,21.25
2019-06-08T08:20:38.464Z,21.39
2019-06-08T08:25:41.179Z,21.52
2019-06-08T08:30:43.905Z,21.74
2019-06-08T08:35:48.212Z,22.03
2019-06-08T08:40:52.829Z,21.68
2019-06-08T08:45:58.262Z,21.22
2019-06-08T08:51:03.266Z,20.90
2019-06-08T08:56:07.365Z,20.59
2019-06-08T09:01:10.083Z,20.71
2019-06-08T09:06:12.787Z,21.19
2019-06-08T09:11:17.494Z,21.57
2019-06-08T09:16:20.176Z,21.75
2019-06-08T09:21:22.959Z,21.59
2019-06-08T09:26:31.084Z,21.72
2019-06-08T09:31:30.985Z,22.17
2019-06-08T09:36:33.844Z,22.64
2019-06-08T09:41:38.031Z,22.31
2019-06-08T09:46:40.929Z,22.42
2019-06-08T09:51:43.843Z,22.93
2019-06-08T09:56:47.846Z,22.51
2019-06-08T10:01:50.708Z,22.11
2019-06-08T10:06:54.331Z,21.77
2019-06-08T10:11:59.570Z,21.88
2019-06-08T10:17:03.586Z,22.03
2019-06-08T10:22:08.381Z,22.06
2019-06-08T10:27:11.668Z,22.50
2019-06-08T10:32:18.006Z,22.06
2019-06-08T10:37:20.985Z,22.28
2019-06-08T10:42:23.843Z,22.87
2019-06-08T10:47:29.562Z,22.61
2019-06-08T10:52:31.227Z,22.36
2019-06-08T10:57:53.964Z,22.22
2019-06-08T11:03:18.395Z,21.97
2019-06-08T11:08:22.371Z,21.91
2019-06-08T11:14:00.988Z,22.91
2019-06-08T11:19:04.756Z,23.63
2019-06-08T11:24:21.631Z,23.91
2019-06-08T11:30:10.824Z,24.26
2019-06-08T11:35:28.585Z,24.35
2019-06-08T11:40:47.733Z,24.30
2019-06-08T11:46:11.789Z,24.81
2019-06-08T11:51:24.380Z,24.60
2019-06-08T11:56:30.069Z,23.99
2019-06-08T12:01:37.933Z,24.24
2019-06-08T12:06:42.717Z,24.86
2019-06-08T12:11:51.289Z,24.97
2019-06-08T12:16:54.513Z,24.88
2019-06-08T12:21:58.140Z,24.38
2019-06-08T12:27:10.132Z,24.46
2019-06-08T12:32:10.480Z,23.92
2019-06-08T12:37:17.865Z,23.82
2019-06-08T12:42:22.940Z,23.12
2019-06-08T12:47:26.715Z,23.88
2019-06-08T12:52:29.808Z,24.20
2019-06-08T12:57:33.126Z,23.89
2019-06-08T13:02:38.431Z,24.30
2019-06-08T13:07:41.165Z,24.51
2019-06-08T13:12:43.877Z,24.90
2019-06-08T13:17:47.740Z,25.20
2019-06-08T13:22:51.215Z,25.03
2019-06-08T13:27:53.931Z,25.21
2019-06-08T13:32:58.087Z,24.97
2019-06-08T13:38:02.007Z,24.99
2019-06-08T13:43:04.714Z,24.94
2019-06-08T13:48:08.923Z,24.98
2019-06-08T13:53:12.579Z,25.02
2019-06-08T13:58:15.324Z,25.23
2019-06-08T14:03:18.716Z,25.09
2019-06-08T14:08:24.158Z,24.54
2019-06-08T14:13:33.867Z,24.60
2019-06-08T14:18:34.050Z,24.67
2019-06-08T14:23:41.115Z,24.34
2019-06-08T14:28:41.160Z,24.10
2019-06-08T14:33:43.912Z,24.40
2019-06-08T14:38:49.113Z,24.48
2019-06-08T14:43:51.220Z,25.31
2019-06-08T14:48:53.947Z,25.98
2019-06-08T14:53:58.270Z,25.70
2019-06-08T14:59:03.909Z,25.70
2019-06-08T15:04:10.712Z,25.39
2019-06-08T15:09:17.697Z,25.08
2019-06-08T15:14:21.862Z,24.68
2019-06-08T15:19:27.028Z,24.76
2019-06-08T15:24:33.137Z,25.02
2019-06-08T15:29:39.176Z,24.83
2019-06-08T15:34:44.072Z,25.06
2019-06-08T15:40:09.429Z,25.12
2019-06-08T15:45:22.293Z,25.33
2019-06-08T15:50:32.688Z,24.95
2019-06-08T15:55:40.152Z,25.04
2019-06-08T16:00:44.513Z,24.88
2019-06-08T16:05:49.404Z,24.87
2019-06-08T16:10:53.627Z,24.63
2019-06-08T16:15:59.077Z,24.75
2019-06-08T16:21:04.408Z,24.62
2019-06-08T16:26:08.909Z,24.30
2019-06-08T16:31:13.244Z,23.95
2019-06-08T16:36:19.122Z,23.99
2019-06-08T16:41:24.486Z,24.14
2019-06-08T16:46:30.032Z,24.60
2019-06-08T16:51:37.076Z,24.59
2019-06-08T16:56:43.213Z,24.55
2019-06-08T17:01:46.208Z,25.01
2019-06-08T17:06:48.922Z,25.13
2019-06-08T17:11:52.525Z,24.79
2019-06-08T17:16:55.291Z,24.35
2019-06-08T17:21:58.020Z,23.97
2019-06-08T17:27:00.905Z,23.74
2019-06-08T17:32:03.778Z,23.26
2019-06-08T17:37:06.568Z,23.05
2019-06-08T17:42:09.304Z,22.90
2019-06-08T17:47:12.107Z,22.80
2019-06-08T17:52:14.868Z,22.42
2019-06-08T17:57:17.584Z,22.36
2019-06-08T18:02:27.284Z,21.93
2019-06-08T18:07:27.632Z,20.79
2019-06-08T18:12:36.914Z,19.85
2019-06-08T18:17:53.635Z,19.55
2019-06-08T18:22:58.973Z,19.38
2019-06-08T18:28:09.890Z,19.47
2019-06-08T18:33:08.366Z,19.63
2019-06-08T18:38:11.576Z,19.78
2019-06-08T18:43:16.939Z,19.85
2019-06-08T18:48:22.817Z,19.75
2019-06-08T18:53:27.736Z,19.80
2019-06-08T18:58:30.629Z,19.70
2019-06-08T19:03:33.357Z,19.49
2019-06-08T19:08:39.207Z,19.40
2019-06-08T19:13:41.279Z,19.35
2019-06-08T19:18:52.714Z,19.25
2019-06-08T19:24:01.362Z,18.84
2019-06-08T19:29:10.537Z,19.17
2019-06-08T19:34:18.130Z,19.08
2019-06-08T19:39:57.717Z,18.95
2019-06-08T19:45:08.808Z,18.77
2019-06-08T19:50:21.369Z,18.67
2019-06-08T19:55:45.449Z,18.61
2019-06-08T20:00:59.408Z,18.54
2019-06-08T20:06:02.275Z,18.44
2019-06-08T20:11:08.117Z,18.43
2019-06-08T20:16:11.583Z,18.35
2019-06-08T20:21:14.357Z,18.23
2019-06-08T20:26:17.399Z,18.35
2019-06-08T20:31:20.196Z,18.28
2019-06-08T20:36:22.907Z,18.28
2019-06-08T20:41:27.621Z,18.24
2019-06-08T20:46:30.267Z,18.18
2019-06-08T20:51:33.085Z,18.11
2019-06-08T20:56:37.241Z,18.08
2019-06-08T21:01:43.656Z,18.02
2019-06-08T21:12:19.285Z,17.90
2019-06-08T21:17:24.747Z,17.98
2019-06-08T21:22:28.524Z,17.95
2019-06-08T21:27:31.226Z,17.98
2019-06-08T21:32:33.954Z,17.88
2019-06-08T21:37:37.676Z,17.83
2019-06-08T21:42:40.592Z,17.76
2019-06-08T21:47:43.320Z,17.67
2019-06-08T21:52:48.657Z,17.60
2019-06-08T21:57:52.667Z,17.60
2019-06-08T22:02:58.459Z,17.57
2019-06-08T22:08:01.348Z,17.51
2019-06-08T22:13:12.592Z,17.06
2019-06-08T22:18:21.552Z,17.44
2019-06-08T22:23:24.268Z,17.43
2019-06-08T22:28:27.114Z,17.38
2019-06-08T22:33:34.315Z,17.33
2019-06-08T22:38:37.707Z,17.26
2019-06-08T22:43:40.409Z,17.20
2019-06-08T22:48:43.286Z,17.17
2019-06-08T22:53:47.857Z,17.08
2019-06-08T22:58:50.629Z,16.51
2019-06-08T23:03:53.627Z,17.07
2019-06-08T23:09:00.722Z,17.02
2019-06-08T23:14:04.381Z,16.99
2019-06-08T23:19:08.033Z,17.01
2019-06-08T23:24:10.915Z,17.06
2019-06-08T23:29:40.563Z,16.98
2019-06-08T23:34:54.972Z,16.94
2019-06-08T23:40:02.586Z,16.91
2019-06-08T23:45:10.347Z,16.87
2019-06-08T23:50:27.241Z,16.86
2019-06-08T23:55:31.071Z,16.81
